sensor_id;sensor_type;location;lat;lon;timestamp;temperature;humidity
53926;DHT22;39836;52.754;6.866;2023-02-01T00:01:23;4.90;77.90
53926;DHT22;39836;52.754;6.866;2023-02-01T00:03:48;4.90;77.80
53926;DHT22;39836;52.754;6.866;2023-02-01T00:06:14;5.00;77.70
53926;DHT22;39836;52.754;6.866;2023-02-01T00:08:40;5.10;77.80
53926;DHT22;39836;52.754;6.866;2023-02-01T00:11:08;5.00;77.60
53926;DHT22;39836;52.754;6.866;2023-02-01T00:13:36;5.10;77.60
53926;DHT22;39836;52.754;6.866;2023-02-01T00:16:16;5.10;77.50
53926;DHT22;39836;52.754;6.866;2023-02-01T00:18:42;5.20;77.50
53926;DHT22;39836;52.754;6.866;2023-02-01T00:21:10;5.20;77.60
53926;DHT22;39836;52.754;6.866;2023-02-01T00:23:37;5.20;77.60
53926;DHT22;39836;52.754;6.866;2023-02-01T00:26:04;5.20;77.50
53926;DHT22;39836;52.754;6.866;2023-02-01T00:28:31;5.20;77.50
53926;DHT22;39836;52.754;6.866;2023-02-01T00:31:00;5.20;77.40
53926;DHT22;39836;52.754;6.866;2023-02-01T00:33:27;5.30;77.40
53926;DHT22;39836;52.754;6.866;2023-02-01T00:36:01;5.20;77.40
53926;DHT22;39836;52.754;6.866;2023-02-01T00:38:28;5.30;77.40
53926;DHT22;39836;52.754;6.866;2023-02-01T00:40:54;5.30;77.50
53926;DHT22;39836;52.754;6.866;2023-02-01T00:43:20;5.20;77.40
53926;DHT22;39836;52.754;6.866;2023-02-01T00:45:46;5.20;77.50
53926;DHT22;39836;52.754;6.866;2023-02-01T00:48:13;5.20;77.50
53926;DHT22;39836;52.754;6.866;2023-02-01T00:50:42;5.20;77.50
53926;DHT22;39836;52.754;6.866;2023-02-01T00:53:11;5.20;77.50
53926;DHT22;39836;52.754;6.866;2023-02-01T00:55:37;5.20;77.60
53926;DHT22;39836;52.754;6.866;2023-02-01T00:58:03;5.30;77.60
53926;DHT22;39836;52.754;6.866;2023-02-01T01:00:32;5.30;77.50
53926;DHT22;39836;52.754;6.866;2023-02-01T01:02:58;5.30;77.60
53926;DHT22;39836;52.754;6.866;2023-02-01T01:05:23;5.30;77.50
53926;DHT22;39836;52.754;6.866;2023-02-01T01:07:49;5.30;77.40
53926;DHT22;39836;52.754;6.866;2023-02-01T01:10:15;5.30;77.40
53926;DHT22;39836;52.754;6.866;2023-02-01T01:12:41;5.30;77.40
53926;DHT22;39836;52.754;6.866;2023-02-01T01:15:07;5.30;77.40
53926;DHT22;39836;52.754;6.866;2023-02-01T01:17:33;5.30;77.40
53926;DHT22;39836;52.754;6.866;2023-02-01T01:19:59;5.30;77.40
53926;DHT22;39836;52.754;6.866;2023-02-01T01:22:24;5.70;77.50
53926;DHT22;39836;52.754;6.866;2023-02-01T01:24:50;5.30;77.40
53926;DHT22;39836;52.754;6.866;2023-02-01T01:27:15;5.30;77.40
53926;DHT22;39836;52.754;6.866;2023-02-01T01:29:48;5.30;77.50
53926;DHT22;39836;52.754;6.866;2023-02-01T01:32:14;5.30;77.50
53926;DHT22;39836;52.754;6.866;2023-02-01T01:34:39;5.30;77.40
53926;DHT22;39836;52.754;6.866;2023-02-01T01:37:05;5.30;77.60
53926;DHT22;39836;52.754;6.866;2023-02-01T01:39:31;5.30;77.60
53926;DHT22;39836;52.754;6.866;2023-02-01T01:41:56;5.30;77.70
53926;DHT22;39836;52.754;6.866;2023-02-01T01:45:02;5.30;77.70
53926;DHT22;39836;52.754;6.866;2023-02-01T01:47:37;5.30;77.80
53926;DHT22;39836;52.754;6.866;2023-02-01T01:50:07;5.30;77.70
53926;DHT22;39836;52.754;6.866;2023-02-01T01:52:33;5.30;77.70
53926;DHT22;39836;52.754;6.866;2023-02-01T01:55:00;5.40;77.70
53926;DHT22;39836;52.754;6.866;2023-02-01T01:57:38;5.40;77.70
53926;DHT22;39836;52.754;6.866;2023-02-01T02:00:12;5.40;77.60
53926;DHT22;39836;52.754;6.866;2023-02-01T02:02:40;5.40;77.70
53926;DHT22;39836;52.754;6.866;2023-02-01T02:05:07;5.40;77.60
53926;DHT22;39836;52.754;6.866;2023-02-01T02:07:37;5.40;77.70
53926;DHT22;39836;52.754;6.866;2023-02-01T02:10:08;5.40;77.70
53926;DHT22;39836;52.754;6.866;2023-02-01T02:12:43;5.40;77.80
53926;DHT22;39836;52.754;6.866;2023-02-01T02:15:10;5.40;77.80
53926;DHT22;39836;52.754;6.866;2023-02-01T02:17:55;5.50;77.80
53926;DHT22;39836;52.754;6.866;2023-02-01T02:26:10;5.40;78.00
53926;DHT22;39836;52.754;6.866;2023-02-01T02:28:52;5.40;78.10
53926;DHT22;39836;52.754;6.866;2023-02-01T02:34:47;5.30;78.50
53926;DHT22;39836;52.754;6.866;2023-02-01T02:37:43;5.30;78.70
53926;DHT22;39836;52.754;6.866;2023-02-01T02:40:18;5.20;78.90
53926;DHT22;39836;52.754;6.866;2023-02-01T02:46:01;5.10;79.40
53926;DHT22;39836;52.754;6.866;2023-02-01T02:51:49;5.10;79.80
53926;DHT22;39836;52.754;6.866;2023-02-01T02:54:38;5.10;79.90
53926;DHT22;39836;52.754;6.866;2023-02-01T02:57:22;5.00;80.00
53926;DHT22;39836;52.754;6.866;2023-02-01T03:00:11;5.00;80.20
53926;DHT22;39836;52.754;6.866;2023-02-01T03:02:56;5.00;80.40
53926;DHT22;39836;52.754;6.866;2023-02-01T03:05:43;5.00;80.60
53926;DHT22;39836;52.754;6.866;2023-02-01T03:08:27;5.00;80.70
53926;DHT22;39836;52.754;6.866;2023-02-01T03:11:12;5.00;80.90
53926;DHT22;39836;52.754;6.866;2023-02-01T03:13:56;4.90;80.90
53926;DHT22;39836;52.754;6.866;2023-02-01T03:21:43;4.90;80.90
53926;DHT22;39836;52.754;6.866;2023-02-01T03:24:20;5.10;80.90
53926;DHT22;39836;52.754;6.866;2023-02-01T03:26:55;5.00;80.90
53926;DHT22;39836;52.754;6.866;2023-02-01T03:29:27;5.00;80.80
53926;DHT22;39836;52.754;6.866;2023-02-01T03:31:55;5.00;80.90
53926;DHT22;39836;52.754;6.866;2023-02-01T03:34:21;5.00;81.00
53926;DHT22;39836;52.754;6.866;2023-02-01T03:37:10;5.00;80.90
53926;DHT22;39836;52.754;6.866;2023-02-01T03:39:56;5.10;80.90
53926;DHT22;39836;52.754;6.866;2023-02-01T03:42:30;5.00;80.80
53926;DHT22;39836;52.754;6.866;2023-02-01T03:45:20;5.10;80.90
53926;DHT22;39836;52.754;6.866;2023-02-01T03:47:50;5.10;80.60
53926;DHT22;39836;52.754;6.866;2023-02-01T03:50:23;5.10;80.70
53926;DHT22;39836;52.754;6.866;2023-02-01T03:53:09;5.10;80.70
53926;DHT22;39836;52.754;6.866;2023-02-01T03:55:36;5.10;80.50
53926;DHT22;39836;52.754;6.866;2023-02-01T04:00:34;5.20;80.60
53926;DHT22;39836;52.754;6.866;2023-02-01T04:02:59;5.10;80.50
53926;DHT22;39836;52.754;6.866;2023-02-01T04:05:25;5.30;80.60
53926;DHT22;39836;52.754;6.866;2023-02-01T04:07:51;5.10;80.70
53926;DHT22;39836;52.754;6.866;2023-02-01T04:10:17;5.10;80.60
53926;DHT22;39836;52.754;6.866;2023-02-01T04:12:42;5.10;80.70
53926;DHT22;39836;52.754;6.866;2023-02-01T04:15:08;5.10;80.80
53926;DHT22;39836;52.754;6.866;2023-02-01T04:17:34;5.10;80.70
53926;DHT22;39836;52.754;6.866;2023-02-01T04:20:00;5.10;80.80
53926;DHT22;39836;52.754;6.866;2023-02-01T04:22:26;5.20;80.90
53926;DHT22;39836;52.754;6.866;2023-02-01T04:24:51;5.10;81.00
53926;DHT22;39836;52.754;6.866;2023-02-01T04:27:17;5.10;80.80
53926;DHT22;39836;52.754;6.866;2023-02-01T04:29:43;5.10;81.00
53926;DHT22;39836;52.754;6.866;2023-02-01T04:32:10;5.10;81.10
53926;DHT22;39836;52.754;6.866;2023-02-01T04:34:36;5.10;81.10
53926;DHT22;39836;52.754;6.866;2023-02-01T04:37:01;5.10;81.20
53926;DHT22;39836;52.754;6.866;2023-02-01T04:39:28;5.30;81.10
53926;DHT22;39836;52.754;6.866;2023-02-01T04:41:53;5.20;81.00
53926;DHT22;39836;52.754;6.866;2023-02-01T04:44:19;5.30;81.10
53926;DHT22;39836;52.754;6.866;2023-02-01T04:46:46;5.30;81.10
53926;DHT22;39836;52.754;6.866;2023-02-01T04:49:13;5.20;81.10
53926;DHT22;39836;52.754;6.866;2023-02-01T04:51:40;5.40;81.20
53926;DHT22;39836;52.754;6.866;2023-02-01T04:54:06;5.30;81.20
53926;DHT22;39836;52.754;6.866;2023-02-01T04:56:31;5.30;81.30
53926;DHT22;39836;52.754;6.866;2023-02-01T04:58:57;5.30;81.10
53926;DHT22;39836;52.754;6.866;2023-02-01T05:01:23;5.30;81.20
53926;DHT22;39836;52.754;6.866;2023-02-01T05:03:52;5.40;81.00
53926;DHT22;39836;52.754;6.866;2023-02-01T05:06:17;5.40;80.90
53926;DHT22;39836;52.754;6.866;2023-02-01T05:08:43;5.40;80.90
53926;DHT22;39836;52.754;6.866;2023-02-01T05:11:09;5.40;80.80
53926;DHT22;39836;52.754;6.866;2023-02-01T05:13:58;5.40;80.60
53926;DHT22;39836;52.754;6.866;2023-02-01T05:16:24;5.50;80.50
53926;DHT22;39836;52.754;6.866;2023-02-01T05:18:50;5.50;80.50
53926;DHT22;39836;52.754;6.866;2023-02-01T05:21:15;5.50;80.50
53926;DHT22;39836;52.754;6.866;2023-02-01T05:23:41;5.50;80.40
53926;DHT22;39836;52.754;6.866;2023-02-01T05:26:46;5.60;80.30
53926;DHT22;39836;52.754;6.866;2023-02-01T05:29:12;5.50;80.00
53926;DHT22;39836;52.754;6.866;2023-02-01T05:31:38;5.40;80.00
53926;DHT22;39836;52.754;6.866;2023-02-01T05:34:04;5.40;80.00
53926;DHT22;39836;52.754;6.866;2023-02-01T05:36:31;5.50;80.00
53926;DHT22;39836;52.754;6.866;2023-02-01T05:38:57;5.50;79.90
53926;DHT22;39836;52.754;6.866;2023-02-01T05:41:22;5.50;79.90
53926;DHT22;39836;52.754;6.866;2023-02-01T05:43:48;5.50;79.80
53926;DHT22;39836;52.754;6.866;2023-02-01T05:46:14;5.50;79.70
53926;DHT22;39836;52.754;6.866;2023-02-01T05:48:40;5.60;79.60
53926;DHT22;39836;52.754;6.866;2023-02-01T05:51:06;5.50;79.60
53926;DHT22;39836;52.754;6.866;2023-02-01T05:53:32;5.50;79.70
53926;DHT22;39836;52.754;6.866;2023-02-01T05:55:57;5.60;79.60
53926;DHT22;39836;52.754;6.866;2023-02-01T05:58:23;5.60;79.30
53926;DHT22;39836;52.754;6.866;2023-02-01T06:00:49;5.60;79.40
53926;DHT22;39836;52.754;6.866;2023-02-01T06:03:15;5.60;79.40
53926;DHT22;39836;52.754;6.866;2023-02-01T06:05:42;5.60;79.20
53926;DHT22;39836;52.754;6.866;2023-02-01T06:08:08;5.60;79.30
53926;DHT22;39836;52.754;6.866;2023-02-01T06:10:34;5.70;79.10
53926;DHT22;39836;52.754;6.866;2023-02-01T06:13:00;5.70;79.00
53926;DHT22;39836;52.754;6.866;2023-02-01T06:15:25;5.70;78.90
53926;DHT22;39836;52.754;6.866;2023-02-01T06:17:51;5.70;78.90
53926;DHT22;39836;52.754;6.866;2023-02-01T06:20:17;5.80;78.80
53926;DHT22;39836;52.754;6.866;2023-02-01T06:22:43;5.80;78.70
53926;DHT22;39836;52.754;6.866;2023-02-01T06:25:09;5.80;78.50
53926;DHT22;39836;52.754;6.866;2023-02-01T06:27:35;5.80;78.50
53926;DHT22;39836;52.754;6.866;2023-02-01T06:30:04;5.80;78.60
53926;DHT22;39836;52.754;6.866;2023-02-01T06:32:30;5.90;78.60
53926;DHT22;39836;52.754;6.866;2023-02-01T06:34:56;5.90;78.50
53926;DHT22;39836;52.754;6.866;2023-02-01T06:37:23;5.90;78.50
53926;DHT22;39836;52.754;6.866;2023-02-01T06:39:50;5.80;78.50
53926;DHT22;39836;52.754;6.866;2023-02-01T06:42:16;5.90;78.40
53926;DHT22;39836;52.754;6.866;2023-02-01T06:44:42;5.90;78.40
53926;DHT22;39836;52.754;6.866;2023-02-01T06:47:08;5.90;78.30
53926;DHT22;39836;52.754;6.866;2023-02-01T06:49:33;5.90;78.20
53926;DHT22;39836;52.754;6.866;2023-02-01T06:51:59;5.90;78.20
53926;DHT22;39836;52.754;6.866;2023-02-01T06:54:26;5.90;78.30
53926;DHT22;39836;52.754;6.866;2023-02-01T06:56:52;6.00;78.20
53926;DHT22;39836;52.754;6.866;2023-02-01T06:59:17;6.00;78.20
53926;DHT22;39836;52.754;6.866;2023-02-01T07:01:43;6.00;78.20
53926;DHT22;39836;52.754;6.866;2023-02-01T07:04:11;5.90;78.10
53926;DHT22;39836;52.754;6.866;2023-02-01T07:06:37;6.00;78.00
53926;DHT22;39836;52.754;6.866;2023-02-01T07:09:03;6.00;77.90
53926;DHT22;39836;52.754;6.866;2023-02-01T07:11:29;6.00;78.00
53926;DHT22;39836;52.754;6.866;2023-02-01T07:13:56;6.00;78.00
53926;DHT22;39836;52.754;6.866;2023-02-01T07:16:21;6.10;77.90
53926;DHT22;39836;52.754;6.866;2023-02-01T07:18:48;6.00;77.90
53926;DHT22;39836;52.754;6.866;2023-02-01T07:21:14;6.00;78.00
53926;DHT22;39836;52.754;6.866;2023-02-01T07:23:40;6.10;78.00
53926;DHT22;39836;52.754;6.866;2023-02-01T07:26:07;6.10;77.90
53926;DHT22;39836;52.754;6.866;2023-02-01T07:28:34;6.10;77.90
53926;DHT22;39836;52.754;6.866;2023-02-01T07:31:08;6.30;78.10
53926;DHT22;39836;52.754;6.866;2023-02-01T07:33:34;6.00;77.90
53926;DHT22;39836;52.754;6.866;2023-02-01T07:36:02;6.10;78.10
53926;DHT22;39836;52.754;6.866;2023-02-01T07:38:28;6.00;78.20
53926;DHT22;39836;52.754;6.866;2023-02-01T07:40:58;6.10;78.30
53926;DHT22;39836;52.754;6.866;2023-02-01T07:43:25;6.10;78.40
53926;DHT22;39836;52.754;6.866;2023-02-01T07:45:52;6.00;78.40
53926;DHT22;39836;52.754;6.866;2023-02-01T07:48:19;5.90;78.50
53926;DHT22;39836;52.754;6.866;2023-02-01T07:50:45;6.00;78.40
53926;DHT22;39836;52.754;6.866;2023-02-01T07:53:10;6.40;78.60
53926;DHT22;39836;52.754;6.866;2023-02-01T07:55:40;5.90;78.40
53926;DHT22;39836;52.754;6.866;2023-02-01T07:58:06;6.00;78.30
53926;DHT22;39836;52.754;6.866;2023-02-01T08:00:32;6.00;78.30
53926;DHT22;39836;52.754;6.866;2023-02-01T08:03:16;6.00;78.50
53926;DHT22;39836;52.754;6.866;2023-02-01T08:05:42;6.00;78.40
53926;DHT22;39836;52.754;6.866;2023-02-01T08:08:07;6.40;78.50
53926;DHT22;39836;52.754;6.866;2023-02-01T08:10:33;6.00;78.20
53926;DHT22;39836;52.754;6.866;2023-02-01T08:13:00;6.10;78.20
53926;DHT22;39836;52.754;6.866;2023-02-01T08:15:28;6.30;78.20
53926;DHT22;39836;52.754;6.866;2023-02-01T08:17:53;6.00;78.20
53926;DHT22;39836;52.754;6.866;2023-02-01T08:20:23;6.00;78.30
53926;DHT22;39836;52.754;6.866;2023-02-01T08:22:51;6.00;78.30
53926;DHT22;39836;52.754;6.866;2023-02-01T08:25:17;6.00;78.40
53926;DHT22;39836;52.754;6.866;2023-02-01T08:27:43;6.00;78.30
53926;DHT22;39836;52.754;6.866;2023-02-01T08:30:10;6.00;78.40
53926;DHT22;39836;52.754;6.866;2023-02-01T08:32:36;6.00;78.40
53926;DHT22;39836;52.754;6.866;2023-02-01T08:35:03;5.90;78.60
53926;DHT22;39836;52.754;6.866;2023-02-01T08:37:29;5.90;78.50
53926;DHT22;39836;52.754;6.866;2023-02-01T08:39:55;6.00;78.80
53926;DHT22;39836;52.754;6.866;2023-02-01T08:42:21;6.00;78.60
53926;DHT22;39836;52.754;6.866;2023-02-01T08:45:05;6.10;78.80
53926;DHT22;39836;52.754;6.866;2023-02-01T08:47:33;6.10;78.70
53926;DHT22;39836;52.754;6.866;2023-02-01T08:49:59;6.10;78.60
53926;DHT22;39836;52.754;6.866;2023-02-01T08:52:25;6.20;78.50
53926;DHT22;39836;52.754;6.866;2023-02-01T08:54:51;6.20;78.60
53926;DHT22;39836;52.754;6.866;2023-02-01T08:57:17;6.20;78.60
53926;DHT22;39836;52.754;6.866;2023-02-01T08:59:43;6.20;78.20
53926;DHT22;39836;52.754;6.866;2023-02-01T09:02:16;6.40;78.50
53926;DHT22;39836;52.754;6.866;2023-02-01T09:04:42;6.30;78.40
53926;DHT22;39836;52.754;6.866;2023-02-01T09:07:09;6.30;78.50
53926;DHT22;39836;52.754;6.866;2023-02-01T09:09:35;6.30;78.50
53926;DHT22;39836;52.754;6.866;2023-02-01T09:12:02;6.30;78.80
53926;DHT22;39836;52.754;6.866;2023-02-01T09:14:28;6.30;78.60
53926;DHT22;39836;52.754;6.866;2023-02-01T09:16:54;6.30;78.60
53926;DHT22;39836;52.754;6.866;2023-02-01T09:19:19;6.30;78.60
53926;DHT22;39836;52.754;6.866;2023-02-01T09:21:45;6.20;78.80
53926;DHT22;39836;52.754;6.866;2023-02-01T09:24:11;6.20;78.80
53926;DHT22;39836;52.754;6.866;2023-02-01T09:26:37;6.30;78.80
53926;DHT22;39836;52.754;6.866;2023-02-01T09:29:03;6.30;78.70
53926;DHT22;39836;52.754;6.866;2023-02-01T09:31:32;6.30;78.70
53926;DHT22;39836;52.754;6.866;2023-02-01T09:33:58;6.30;78.30
53926;DHT22;39836;52.754;6.866;2023-02-01T09:36:23;6.30;78.50
53926;DHT22;39836;52.754;6.866;2023-02-01T09:38:49;6.20;78.70
53926;DHT22;39836;52.754;6.866;2023-02-01T09:46:58;6.30;78.60
53926;DHT22;39836;52.754;6.866;2023-02-01T09:49:32;6.30;78.70
53926;DHT22;39836;52.754;6.866;2023-02-01T09:52:02;6.20;78.40
53926;DHT22;39836;52.754;6.866;2023-02-01T09:54:42;6.20;78.60
53926;DHT22;39836;52.754;6.866;2023-02-01T09:57:31;6.30;78.70
53926;DHT22;39836;52.754;6.866;2023-02-01T10:00:06;6.30;78.60
53926;DHT22;39836;52.754;6.866;2023-02-01T10:02:40;6.30;78.80
53926;DHT22;39836;52.754;6.866;2023-02-01T10:05:30;6.20;78.60
53926;DHT22;39836;52.754;6.866;2023-02-01T10:08:09;6.20;78.50
53926;DHT22;39836;52.754;6.866;2023-02-01T10:10:49;6.20;78.60
53926;DHT22;39836;52.754;6.866;2023-02-01T10:13:37;6.20;78.70
53926;DHT22;39836;52.754;6.866;2023-02-01T10:22:04;6.00;79.50
53926;DHT22;39836;52.754;6.866;2023-02-01T10:24:39;5.90;79.70
53926;DHT22;39836;52.754;6.866;2023-02-01T10:27:14;5.90;79.80
53926;DHT22;39836;52.754;6.866;2023-02-01T10:29:44;5.90;80.00
53926;DHT22;39836;52.754;6.866;2023-02-01T10:32:23;5.80;79.90
53926;DHT22;39836;52.754;6.866;2023-02-01T10:34:58;5.90;80.10
53926;DHT22;39836;52.754;6.866;2023-02-01T10:37:31;5.80;80.20
53926;DHT22;39836;52.754;6.866;2023-02-01T10:40:05;5.70;80.30
53926;DHT22;39836;52.754;6.866;2023-02-01T10:42:39;5.70;80.40
53926;DHT22;39836;52.754;6.866;2023-02-01T10:45:06;5.60;80.50
53926;DHT22;39836;52.754;6.866;2023-02-01T10:47:32;5.70;80.70
53926;DHT22;39836;52.754;6.866;2023-02-01T10:50:09;5.70;80.70
53926;DHT22;39836;52.754;6.866;2023-02-01T10:52:54;5.70;80.80
53926;DHT22;39836;52.754;6.866;2023-02-01T10:55:33;5.60;80.90
53926;DHT22;39836;52.754;6.866;2023-02-01T10:58:01;5.60;80.80
53926;DHT22;39836;52.754;6.866;2023-02-01T11:00:44;5.60;81.00
53926;DHT22;39836;52.754;6.866;2023-02-01T11:05:55;5.50;81.10
53926;DHT22;39836;52.754;6.866;2023-02-01T11:08:21;5.50;81.10
53926;DHT22;39836;52.754;6.866;2023-02-01T11:11:00;5.70;81.20
53926;DHT22;39836;52.754;6.866;2023-02-01T11:13:32;5.60;81.20
53926;DHT22;39836;52.754;6.866;2023-02-01T11:16:03;5.70;81.30
53926;DHT22;39836;52.754;6.866;2023-02-01T11:18:32;5.60;81.20
53926;DHT22;39836;52.754;6.866;2023-02-01T11:21:01;5.60;81.20
53926;DHT22;39836;52.754;6.866;2023-02-01T11:23:28;5.60;81.10
53926;DHT22;39836;52.754;6.866;2023-02-01T11:25:55;5.70;81.10
53926;DHT22;39836;52.754;6.866;2023-02-01T11:28:31;5.70;81.10
53926;DHT22;39836;52.754;6.866;2023-02-01T11:31:01;5.80;81.10
53926;DHT22;39836;52.754;6.866;2023-02-01T11:33:31;5.80;80.90
53926;DHT22;39836;52.754;6.866;2023-02-01T11:36:06;5.80;80.90
53926;DHT22;39836;52.754;6.866;2023-02-01T11:38:34;5.90;80.80
53926;DHT22;39836;52.754;6.866;2023-02-01T11:41:23;6.00;80.90
53926;DHT22;39836;52.754;6.866;2023-02-01T11:44:00;6.10;80.70
53926;DHT22;39836;52.754;6.866;2023-02-01T11:46:31;6.00;80.60
53926;DHT22;39836;52.754;6.866;2023-02-01T11:49:18;6.00;80.70
53926;DHT22;39836;52.754;6.866;2023-02-01T11:52:29;6.00;80.60
53926;DHT22;39836;52.754;6.866;2023-02-01T11:55:10;6.00;80.80
53926;DHT22;39836;52.754;6.866;2023-02-01T11:57:51;5.90;80.90
53926;DHT22;39836;52.754;6.866;2023-02-01T12:05:53;5.80;81.40
53926;DHT22;39836;52.754;6.866;2023-02-01T12:08:39;5.80;81.50
53926;DHT22;39836;52.754;6.866;2023-02-01T12:14:15;5.80;81.60
53926;DHT22;39836;52.754;6.866;2023-02-01T12:28:36;5.60;81.70
53926;DHT22;39836;52.754;6.866;2023-02-01T12:39:11;5.60;82.30
53926;DHT22;39836;52.754;6.866;2023-02-01T12:41:49;5.60;82.40
53926;DHT22;39836;52.754;6.866;2023-02-01T12:44:22;5.70;82.60
53926;DHT22;39836;52.754;6.866;2023-02-01T12:46:54;5.70;82.60
53926;DHT22;39836;52.754;6.866;2023-02-01T12:52:46;6.00;82.80
53926;DHT22;39836;52.754;6.866;2023-02-01T12:58:38;6.10;82.60
53926;DHT22;39836;52.754;6.866;2023-02-01T13:01:09;6.30;82.90
53926;DHT22;39836;52.754;6.866;2023-02-01T13:03:50;6.50;82.50
53926;DHT22;39836;52.754;6.866;2023-02-01T13:06:21;6.70;82.60
53926;DHT22;39836;52.754;6.866;2023-02-01T13:08:48;7.00;82.30
53926;DHT22;39836;52.754;6.866;2023-02-01T13:16:30;7.40;80.80
53926;DHT22;39836;52.754;6.866;2023-02-01T13:21:42;7.30;80.90
53926;DHT22;39836;52.754;6.866;2023-02-01T13:24:30;7.40;80.50
53926;DHT22;39836;52.754;6.866;2023-02-01T13:26:58;7.40;80.30
53926;DHT22;39836;52.754;6.866;2023-02-01T13:29:25;7.50;80.20
53926;DHT22;39836;52.754;6.866;2023-02-01T13:43:01;6.90;79.50
53926;DHT22;39836;52.754;6.866;2023-02-01T13:45:33;6.90;79.70
53926;DHT22;39836;52.754;6.866;2023-02-01T13:48:02;6.90;79.70
53926;DHT22;39836;52.754;6.866;2023-02-01T13:50:35;6.80;79.90
53926;DHT22;39836;52.754;6.866;2023-02-01T13:53:11;6.90;79.90
53926;DHT22;39836;52.754;6.866;2023-02-01T13:55:41;6.90;79.80
53926;DHT22;39836;52.754;6.866;2023-02-01T13:58:19;6.90;79.70
53926;DHT22;39836;52.754;6.866;2023-02-01T14:00:46;6.90;79.30
53926;DHT22;39836;52.754;6.866;2023-02-01T14:03:14;6.90;79.70
53926;DHT22;39836;52.754;6.866;2023-02-01T14:08:23;7.00;79.50
53926;DHT22;39836;52.754;6.866;2023-02-01T14:10:52;7.10;79.70
53926;DHT22;39836;52.754;6.866;2023-02-01T14:24:13;7.10;79.10
53926;DHT22;39836;52.754;6.866;2023-02-01T14:26:48;7.10;78.90
53926;DHT22;39836;52.754;6.866;2023-02-01T14:31:46;7.00;78.80
53926;DHT22;39836;52.754;6.866;2023-02-01T14:34:17;7.00;79.00
53926;DHT22;39836;52.754;6.866;2023-02-01T14:36:47;7.10;79.30
53926;DHT22;39836;52.754;6.866;2023-02-01T14:39:48;7.20;79.30
53926;DHT22;39836;52.754;6.866;2023-02-01T15:00:59;7.20;78.90
53926;DHT22;39836;52.754;6.866;2023-02-01T15:03:38;7.20;79.00
53926;DHT22;39836;52.754;6.866;2023-02-01T15:06:27;7.20;78.90
53926;DHT22;39836;52.754;6.866;2023-02-01T15:11:54;7.30;78.80
53926;DHT22;39836;52.754;6.866;2023-02-01T15:14:21;7.30;78.50
53926;DHT22;39836;52.754;6.866;2023-02-01T15:16:46;7.30;79.00
53926;DHT22;39836;52.754;6.866;2023-02-01T15:19:20;7.30;79.40
53926;DHT22;39836;52.754;6.866;2023-02-01T15:21:49;7.20;79.40
53926;DHT22;39836;52.754;6.866;2023-02-01T15:24:21;7.20;79.50
53926;DHT22;39836;52.754;6.866;2023-02-01T15:26:48;7.20;79.60
53926;DHT22;39836;52.754;6.866;2023-02-01T15:29:14;7.20;79.50
53926;DHT22;39836;52.754;6.866;2023-02-01T15:31:49;7.10;79.00
53926;DHT22;39836;52.754;6.866;2023-02-01T15:34:15;7.10;78.90
53926;DHT22;39836;52.754;6.866;2023-02-01T15:36:42;7.00;79.00
53926;DHT22;39836;52.754;6.866;2023-02-01T15:39:25;7.00;79.00
53926;DHT22;39836;52.754;6.866;2023-02-01T15:42:15;6.90;79.20
53926;DHT22;39836;52.754;6.866;2023-02-01T15:44:44;6.90;79.30
53926;DHT22;39836;52.754;6.866;2023-02-01T15:47:25;6.90;79.20
53926;DHT22;39836;52.754;6.866;2023-02-01T15:49:56;6.90;78.90
53926;DHT22;39836;52.754;6.866;2023-02-01T15:52:35;7.00;78.60
53926;DHT22;39836;52.754;6.866;2023-02-01T15:55:24;7.00;78.30
53926;DHT22;39836;52.754;6.866;2023-02-01T15:57:53;7.00;78.30
53926;DHT22;39836;52.754;6.866;2023-02-01T16:00:28;7.00;78.30
53926;DHT22;39836;52.754;6.866;2023-02-01T16:03:00;7.00;78.30
53926;DHT22;39836;52.754;6.866;2023-02-01T16:05:37;7.00;78.30
53926;DHT22;39836;52.754;6.866;2023-02-01T16:08:14;7.00;78.20
53926;DHT22;39836;52.754;6.866;2023-02-01T16:10:46;7.00;78.20
53926;DHT22;39836;52.754;6.866;2023-02-01T16:13:13;7.00;78.30
53926;DHT22;39836;52.754;6.866;2023-02-01T16:15:39;7.10;78.30
53926;DHT22;39836;52.754;6.866;2023-02-01T16:18:06;7.00;78.10
53926;DHT22;39836;52.754;6.866;2023-02-01T16:20:34;7.00;77.70
53926;DHT22;39836;52.754;6.866;2023-02-01T16:23:01;7.10;77.70
53926;DHT22;39836;52.754;6.866;2023-02-01T16:25:28;7.00;77.60
53926;DHT22;39836;52.754;6.866;2023-02-01T16:27:53;7.00;77.60
53926;DHT22;39836;52.754;6.866;2023-02-01T16:30:19;7.00;77.50
53926;DHT22;39836;52.754;6.866;2023-02-01T16:32:51;7.00;77.50
53926;DHT22;39836;52.754;6.866;2023-02-01T16:35:24;7.00;77.50
53926;DHT22;39836;52.754;6.866;2023-02-01T16:37:50;7.00;77.50
53926;DHT22;39836;52.754;6.866;2023-02-01T16:40:18;7.00;77.60
53926;DHT22;39836;52.754;6.866;2023-02-01T16:42:46;7.00;77.60
53926;DHT22;39836;52.754;6.866;2023-02-01T16:45:13;7.00;77.80
53926;DHT22;39836;52.754;6.866;2023-02-01T16:47:47;6.90;77.80
53926;DHT22;39836;52.754;6.866;2023-02-01T16:50:19;6.90;77.90
53926;DHT22;39836;52.754;6.866;2023-02-01T16:52:46;6.90;78.10
53926;DHT22;39836;52.754;6.866;2023-02-01T16:55:14;6.90;78.30
53926;DHT22;39836;52.754;6.866;2023-02-01T16:57:41;6.80;78.20
53926;DHT22;39836;52.754;6.866;2023-02-01T17:00:11;6.80;78.40
53926;DHT22;39836;52.754;6.866;2023-02-01T17:02:38;6.70;78.40
53926;DHT22;39836;52.754;6.866;2023-02-01T17:05:05;6.70;78.50
53926;DHT22;39836;52.754;6.866;2023-02-01T17:07:31;6.70;78.40
53926;DHT22;39836;52.754;6.866;2023-02-01T17:09:57;6.70;78.30
53926;DHT22;39836;52.754;6.866;2023-02-01T17:12:31;6.60;78.40
53926;DHT22;39836;52.754;6.866;2023-02-01T17:14:59;6.50;78.40
53926;DHT22;39836;52.754;6.866;2023-02-01T17:17:33;6.50;78.50
53926;DHT22;39836;52.754;6.866;2023-02-01T17:20:00;6.50;78.50
53926;DHT22;39836;52.754;6.866;2023-02-01T17:22:26;6.40;78.50
53926;DHT22;39836;52.754;6.866;2023-02-01T17:24:51;6.40;78.50
53926;DHT22;39836;52.754;6.866;2023-02-01T17:27:17;6.30;78.60
53926;DHT22;39836;52.754;6.866;2023-02-01T17:29:43;6.30;78.60
53926;DHT22;39836;52.754;6.866;2023-02-01T17:32:20;6.30;78.50
53926;DHT22;39836;52.754;6.866;2023-02-01T17:34:47;6.30;78.60
53926;DHT22;39836;52.754;6.866;2023-02-01T17:37:23;6.20;78.70
53926;DHT22;39836;52.754;6.866;2023-02-01T17:39:49;6.20;78.70
53926;DHT22;39836;52.754;6.866;2023-02-01T17:42:21;6.20;78.80
53926;DHT22;39836;52.754;6.866;2023-02-01T17:44:47;6.20;78.80
53926;DHT22;39836;52.754;6.866;2023-02-01T17:47:13;6.20;78.80
53926;DHT22;39836;52.754;6.866;2023-02-01T17:49:39;6.20;78.80
53926;DHT22;39836;52.754;6.866;2023-02-01T17:52:05;6.20;78.80
53926;DHT22;39836;52.754;6.866;2023-02-01T17:54:31;6.20;78.80
53926;DHT22;39836;52.754;6.866;2023-02-01T17:56:57;6.10;78.70
53926;DHT22;39836;52.754;6.866;2023-02-01T17:59:28;6.10;78.70
53926;DHT22;39836;52.754;6.866;2023-02-01T18:01:54;6.10;78.60
53926;DHT22;39836;52.754;6.866;2023-02-01T18:04:25;6.10;78.50
53926;DHT22;39836;52.754;6.866;2023-02-01T18:06:51;6.10;78.40
53926;DHT22;39836;52.754;6.866;2023-02-01T18:09:16;6.10;78.30
53926;DHT22;39836;52.754;6.866;2023-02-01T18:11:42;6.10;78.10
53926;DHT22;39836;52.754;6.866;2023-02-01T18:14:11;6.10;78.00